Leonardo Da Vinci (Fiumicino) International Airport LIRF

Flugplatz Daten

Name: Leonardo Da Vinci (Fiumicino) International Airport

Ident: LIRF

Lat: 41,80450058

Long: 12,25080013

Platzhöhe: 15 ft

IataCode: FCO

City: Rome

Homepage: http://www.adr.it/portal/portal/adr/Fiumicino/Leonardo_da_vinci/Header_Window?action=2

Metar

2021/08/05 13:20
LIRF 051320Z 27011KT 9999 FEW025 26/19 Q1011 NOSIG

Taf

2021/08/05 12:00
TAF LIRF 051100Z 0512/0618 29016KT 9999 FEW030
BECMG 0521/0523 VRB05KT
BECMG 0608/0610 25012KT
Gewünschte Webcam nicht vorhanden? Dann fügen Sie eine hinzu. Sie wird dann so schnell wie möglich freigeschaltet
Url: Title: